Time;durP1;ratioP1;P1;durP2;ratioP2;P2;SDS_P1;SDS_P2;PMS_P1;PMS_P2;Temp;Humidity;BMP_temperature;BMP_pressure;BME280_temperature;BME280_humidity;BME280_pressure;Samples;Min_cycle;Max_cycle;Signal;HPM_P1;HPM_P2
2023/07/20 00:02:05;;;;;;;9.68;5.53;;;;;;;15.55;100.00;101347.22;5036795;28;20039;-73
2023/07/20 00:04:30;;;;;;;9.93;5.50;;;;;;;15.55;100.00;101344.59;5037061;28;20366;-73
2023/07/20 00:06:56;;;;;;;12.25;6.00;;;;;;;15.50;100.00;101350.03;5039222;28;20522;-73
2023/07/20 00:09:21;;;;;;;9.75;5.32;;;;;;;15.46;100.00;101359.75;5041745;28;20032;-73
2023/07/20 00:11:51;;;;;;;9.35;5.28;;;;;;;15.39;100.00;101357.41;5033411;28;20033;-73
2023/07/20 00:14:17;;;;;;;11.52;6.00;;;;;;;15.38;100.00;101358.34;5041812;28;20029;-73
2023/07/20 00:16:43;;;;;;;9.48;5.82;;;;;;;15.33;100.00;101365.50;5037413;28;20040;-73
2023/07/20 00:19:09;;;;;;;10.75;6.82;;;;;;;15.29;100.00;101356.88;5041352;28;20397;-73
2023/07/20 00:21:34;;;;;;;11.02;5.95;;;;;;;15.20;100.00;101347.56;5043429;28;20041;-73
2023/07/20 00:23:59;;;;;;;12.20;6.10;;;;;;;15.38;100.00;101350.44;5042447;28;20112;-73
2023/07/20 00:26:24;;;;;;;9.00;5.82;;;;;;;15.52;100.00;101366.56;5045311;28;20103;-73
2023/07/20 00:28:51;;;;;;;13.10;6.63;;;;;;;15.62;100.00;101369.72;5045691;28;20374;-73
2023/07/20 00:31:17;;;;;;;7.93;5.60;;;;;;;15.71;100.00;101368.56;5035920;28;20025;-73
2023/07/20 00:33:42;;;;;;;14.10;6.65;;;;;;;15.66;100.00;101353.84;5045839;28;20103;-73
2023/07/20 00:36:08;;;;;;;11.77;6.55;;;;;;;15.69;100.00;101366.00;5040582;28;20734;-73
2023/07/20 00:38:33;;;;;;;10.98;5.97;;;;;;;15.67;100.00;101362.59;5043669;28;20036;-73
2023/07/20 00:40:58;;;;;;;11.48;6.13;;;;;;;15.67;100.00;101360.81;5040589;28;20017;-73
2023/07/20 00:43:24;;;;;;;7.97;5.50;;;;;;;15.64;100.00;101363.50;5046024;28;20488;-73
2023/07/20 00:45:49;;;;;;;11.10;6.32;;;;;;;15.57;100.00;101361.16;5045792;28;20029;-73
2023/07/20 00:48:15;;;;;;;10.02;6.05;;;;;;;15.48;100.00;101361.50;5043885;28;20033;-73
2023/07/20 00:50:41;;;;;;;10.70;5.88;;;;;;;15.47;100.00;101368.53;5036993;28;20036;-73
2023/07/20 00:53:07;;;;;;;11.15;7.00;;;;;;;15.42;100.00;101371.28;5042609;28;20397;-73
2023/07/20 00:55:33;;;;;;;9.90;6.60;;;;;;;15.21;100.00;101349.28;5037818;28;20128;-73
2023/07/20 00:57:59;;;;;;;10.57;6.43;;;;;;;15.17;100.00;101363.44;5045697;28;20059;-73
2023/07/20 01:00:25;;;;;;;12.52;6.78;;;;;;;15.11;100.00;101360.16;5038733;28;20112;-73
2023/07/20 01:02:51;;;;;;;10.45;6.35;;;;;;;14.98;100.00;101362.34;5048086;28;20047;-73
2023/07/20 01:05:20;;;;;;;13.55;6.47;;;;;;;14.91;100.00;101366.03;5040110;28;20037;-73
2023/07/20 01:07:51;;;;;;;10.50;6.30;;;;;;;14.87;100.00;101369.69;5048862;28;20029;-73
2023/07/20 01:10:41;;;;;;;9.40;6.18;;;;;;;14.92;100.00;101367.78;5040671;28;20036;-73
2023/07/20 01:13:09;;;;;;;11.75;6.15;;;;;;;14.87;100.00;101370.53;5036862;28;20095;-73
2023/07/20 01:15:34;;;;;;;11.77;6.63;;;;;;;14.80;100.00;101365.56;5042608;28;20040;-73
2023/07/20 01:18:04;;;;;;;13.10;6.50;;;;;;;14.83;100.00;101368.94;5043062;28;20025;-73
2023/07/20 01:20:32;;;;;;;10.38;6.50;;;;;;;14.80;100.00;101373.44;5044243;28;20047;-73
2023/07/20 01:23:12;;;;;;;10.88;6.22;;;;;;;14.78;100.00;101370.88;5043814;28;20087;-73
2023/07/20 01:26:18;;;;;;;12.32;6.35;;;;;;;14.73;100.00;101376.25;5037397;28;20484;-73
2023/07/20 01:29:16;;;;;;;10.80;6.45;;;;;;;14.72;100.00;101368.44;5041032;28;20079;-73
2023/07/20 01:31:42;;;;;;;12.85;6.60;;;;;;;14.62;100.00;101378.38;5035206;28;20040;-74
2023/07/20 01:34:10;;;;;;;11.35;6.55;;;;;;;14.62;100.00;101377.50;5034363;28;20053;-73
2023/07/20 01:36:37;;;;;;;14.15;7.07;;;;;;;14.71;100.00;101369.31;5046863;28;20025;-73
2023/07/20 01:39:04;;;;;;;10.68;6.95;;;;;;;14.85;100.00;101371.53;5044146;28;20032;-73
2023/07/20 01:41:29;;;;;;;14.32;7.03;;;;;;;14.92;100.00;101373.88;5039551;28;20028;-73
2023/07/20 01:43:59;;;;;;;12.82;7.13;;;;;;;14.92;100.00;101367.78;5043265;28;20507;-73
2023/07/20 01:46:24;;;;;;;12.73;7.22;;;;;;;14.98;100.00;101380.72;5040684;28;20022;-73
2023/07/20 01:48:50;;;;;;;10.98;7.43;;;;;;;14.95;100.00;101367.69;5047898;28;20020;-73
2023/07/20 01:51:17;;;;;;;11.95;7.00;;;;;;;15.08;100.00;101374.22;5041985;28;20018;-73
2023/07/20 01:53:43;;;;;;;17.08;7.53;;;;;;;15.10;100.00;101374.16;5041504;28;20534;-73
2023/07/20 01:56:08;;;;;;;14.20;7.57;;;;;;;15.16;100.00;101384.47;5036131;28;20029;-73
2023/07/20 01:58:33;;;;;;;13.95;7.10;;;;;;;15.15;100.00;101378.38;5043534;28;20037;-73
2023/07/20 02:00:59;;;;;;;11.63;6.60;;;;;;;15.14;100.00;101375.78;5044457;28;20492;-73
2023/07/20 02:03:26;;;;;;;11.05;7.22;;;;;;;15.11;100.00;101389.03;5041435;28;20097;-73
2023/07/20 02:05:52;;;;;;;12.45;7.35;;;;;;;15.18;100.00;101387.91;5033123;28;20192;-73
2023/07/20 02:08:18;;;;;;;11.27;7.38;;;;;;;15.14;100.00;101381.91;5043503;28;20104;-73
2023/07/20 02:10:46;;;;;;;12.57;7.10;;;;;;;15.22;100.00;101382.50;5042242;28;20057;-73
2023/07/20 02:13:11;;;;;;;12.68;7.55;;;;;;;15.21;100.00;101386.03;5042710;28;20033;-73
2023/07/20 02:15:36;;;;;;;14.45;7.72;;;;;;;15.21;100.00;101390.44;5040528;28;20036;-73
2023/07/20 02:18:03;;;;;;;11.90;7.43;;;;;;;15.20;100.00;101383.44;5039128;28;20033;-73
2023/07/20 02:20:28;;;;;;;9.60;6.97;;;;;;;15.23;100.00;101397.34;5040137;28;20029;-73
2023/07/20 02:22:54;;;;;;;11.02;7.65;;;;;;;15.23;100.00;101389.44;5040722;28;20557;-73
2023/07/20 02:25:20;;;;;;;11.93;7.40;;;;;;;15.28;100.00;101389.31;5038558;28;20033;-73
2023/07/20 02:27:45;;;;;;;12.85;7.70;;;;;;;15.31;100.00;101390.97;5040753;28;20026;-73
2023/07/20 02:30:10;;;;;;;15.40;8.25;;;;;;;15.36;100.00;101399.53;5048642;28;20043;-73
2023/07/20 02:32:36;;;;;;;15.00;7.47;;;;;;;15.38;100.00;101403.84;5034932;28;20110;-73
2023/07/20 02:35:03;;;;;;;13.25;7.70;;;;;;;15.43;100.00;101408.94;5034397;28;20030;-73
2023/07/20 02:37:28;;;;;;;15.35;8.18;;;;;;;15.37;100.00;101393.41;5043658;28;20027;-74
2023/07/20 02:39:54;;;;;;;13.82;8.35;;;;;;;15.42;100.00;101400.19;5042509;28;20111;-73
2023/07/20 02:42:22;;;;;;;14.02;7.30;;;;;;;15.48;100.00;101409.63;5034946;28;20363;-73
2023/07/20 02:44:48;;;;;;;12.07;7.90;;;;;;;15.45;100.00;101410.59;5039903;28;20037;-73
2023/07/20 02:47:13;;;;;;;14.00;7.90;;;;;;;15.43;100.00;101411.56;5041680;28;20045;-73
2023/07/20 02:49:38;;;;;;;12.20;7.93;;;;;;;15.50;100.00;101405.19;5039157;28;20025;-73
2023/07/20 02:52:04;;;;;;;19.65;9.35;;;;;;;15.51;100.00;101409.53;5044459;28;20052;-73
2023/07/20 02:54:30;;;;;;;13.38;9.80;;;;;;;15.51;100.00;101400.81;5038753;28;20071;-73
2023/07/20 02:56:56;;;;;;;15.63;10.45;;;;;;;15.52;100.00;101411.25;5042835;28;20025;-73
2023/07/20 02:59:21;;;;;;;13.35;9.75;;;;;;;15.51;100.00;101414.78;5038656;28;20099;-73
2023/07/20 03:01:46;;;;;;;15.30;10.15;;;;;;;15.57;100.00;101421.59;5033278;28;20043;-73
2023/07/20 03:04:12;;;;;;;16.02;10.15;;;;;;;15.53;100.00;101420.88;5039309;28;20064;-73
2023/07/20 03:06:37;;;;;;;16.48;9.60;;;;;;;15.53;100.00;101418.22;5039809;28;20032;-73
2023/07/20 03:09:03;;;;;;;14.13;11.00;;;;;;;15.62;100.00;101430.16;5044351;28;20028;-73
2023/07/20 03:11:29;;;;;;;13.43;11.02;;;;;;;15.61;100.00;101431.94;5033777;28;20088;-74
2023/07/20 03:13:54;;;;;;;16.73;10.88;;;;;;;15.61;100.00;101426.69;5045033;28;20028;-73
2023/07/20 03:16:20;;;;;;;19.05;12.32;;;;;;;15.56;100.00;101428.59;5043584;28;20029;-73
2023/07/20 03:18:46;;;;;;;16.83;13.20;;;;;;;15.56;100.00;101433.88;5038930;28;20470;-74
2023/07/20 03:21:11;;;;;;;16.20;13.15;;;;;;;15.58;100.00;101433.81;5030605;28;20025;-73
2023/07/20 03:23:37;;;;;;;21.57;14.60;;;;;;;15.56;100.00;101441.75;5040179;28;20037;-73
2023/07/20 03:26:02;;;;;;;18.85;14.68;;;;;;;15.56;100.00;101439.13;5037721;28;20029;-73
2023/07/20 03:28:28;;;;;;;18.80;13.82;;;;;;;15.55;100.00;101442.66;5040870;28;20064;-73
2023/07/20 03:30:56;;;;;;;17.27;14.25;;;;;;;15.49;100.00;101429.75;5038240;28;20097;-73
2023/07/20 03:33:25;;;;;;;17.58;13.48;;;;;;;15.54;100.00;101430.44;5046254;28;20125;-73
2023/07/20 03:35:50;;;;;;;18.23;14.38;;;;;;;15.49;100.00;101436.78;5039741;28;20099;-73
2023/07/20 03:38:15;;;;;;;20.63;13.90;;;;;;;15.37;100.00;101432.81;5044244;28;20493;-73
2023/07/20 03:40:49;;;;;;;17.88;12.38;;;;;;;15.33;100.00;101446.94;5035150;28;20025;-73
2023/07/20 03:43:15;;;;;;;17.70;13.30;;;;;;;15.23;100.00;101441.13;5048472;28;20029;-73
2023/07/20 03:45:40;;;;;;;18.05;12.63;;;;;;;15.20;100.00;101444.75;5042684;28;20029;-73
2023/07/20 03:48:05;;;;;;;15.90;12.27;;;;;;;15.20;100.00;101447.38;5037578;28;20444;-73
2023/07/20 03:50:31;;;;;;;16.80;12.93;;;;;;;15.23;100.00;101452.50;5037911;28;20366;-73
2023/07/20 03:52:56;;;;;;;15.70;13.85;;;;;;;15.23;100.00;101451.63;5031989;28;20056;-73
2023/07/20 03:55:21;;;;;;;19.23;13.00;;;;;;;15.26;100.00;101445.44;5036020;28;20034;-73
2023/07/20 03:57:47;;;;;;;19.92;13.85;;;;;;;15.32;100.00;101455.75;5043149;28;20025;-73
2023/07/20 04:00:14;;;;;;;17.92;14.38;;;;;;;15.30;100.00;101457.53;5048349;28;20488;-73
2023/07/20 04:02:39;;;;;;;16.30;13.07;;;;;;;15.27;100.00;101457.66;5034317;28;20037;-73
2023/07/20 04:05:05;;;;;;;20.13;14.23;;;;;;;15.25;100.00;101460.34;5041758;28;20542;-73
2023/07/20 04:07:30;;;;;;;15.50;11.93;;;;;;;15.27;100.00;101463.78;5046154;28;20029;-73
2023/07/20 04:09:56;;;;;;;16.90;12.88;;;;;;;15.19;100.00;101457.91;5046139;28;20036;-73
2023/07/20 04:12:21;;;;;;;13.88;12.18;;;;;;;15.18;100.00;101458.81;5046612;28;20029;-73
2023/07/20 04:14:46;;;;;;;15.90;11.93;;;;;;;15.20;100.00;101463.13;5040486;28;20385;-73
2023/07/20 04:17:13;;;;;;;14.98;11.52;;;;;;;15.20;100.00;101464.88;5044298;28;20033;-73
2023/07/20 04:19:38;;;;;;;14.85;11.70;;;;;;;15.23;100.00;101462.16;5042822;28;20037;-73
2023/07/20 04:22:04;;;;;;;13.25;10.77;;;;;;;15.22;100.00;101449.94;5045690;28;20361;-73
2023/07/20 04:24:29;;;;;;;14.10;10.32;;;;;;;15.31;100.00;101467.16;5043268;28;20029;-73
2023/07/20 04:26:54;;;;;;;13.30;10.35;;;;;;;15.36;100.00;101458.19;5035729;28;20026;-73
2023/07/20 04:29:20;;;;;;;11.88;9.38;;;;;;;15.40;100.00;101461.56;5047669;28;20055;-73
2023/07/20 04:31:45;;;;;;;15.38;9.55;;;;;;;15.48;100.00;101467.44;5046543;28;20032;-73
2023/07/20 04:34:10;;;;;;;11.32;9.43;;;;;;;15.49;100.00;101468.31;5044516;28;20033;-73
2023/07/20 04:36:36;;;;;;;10.15;8.80;;;;;;;15.40;100.00;101472.97;5045505;28;20021;-73
2023/07/20 04:39:01;;;;;;;12.15;8.95;;;;;;;15.31;100.00;101467.16;5041945;28;20025;-73
2023/07/20 04:41:27;;;;;;;12.23;8.82;;;;;;;15.25;100.00;101472.63;5044977;28;20028;-73
2023/07/20 04:43:52;;;;;;;10.98;9.15;;;;;;;15.21;100.00;101474.50;5043931;28;20385;-73
2023/07/20 04:46:18;;;;;;;12.70;9.10;;;;;;;15.14;100.00;101476.44;5044694;28;20033;-73
2023/07/20 04:48:44;;;;;;;13.70;9.45;;;;;;;15.09;100.00;101474.88;5045822;28;20055;-73
2023/07/20 04:51:10;;;;;;;11.18;9.98;;;;;;;15.07;100.00;101469.66;5041434;28;20432;-73
2023/07/20 04:53:35;;;;;;;11.82;10.27;;;;;;;15.03;100.00;101470.66;5045222;28;20374;-73
2023/07/20 04:56:00;;;;;;;12.75;10.50;;;;;;;15.03;100.00;101462.78;5036396;28;20056;-73
2023/07/20 04:58:26;;;;;;;12.85;11.38;;;;;;;15.04;100.00;101459.28;5047732;28;20040;-73
2023/07/20 05:00:51;;;;;;;14.55;12.05;;;;;;;15.08;100.00;101467.91;5039806;28;20049;-73
2023/07/20 05:03:17;;;;;;;15.95;12.40;;;;;;;15.11;100.00;101465.19;5047320;28;20029;-73
2023/07/20 05:05:43;;;;;;;13.57;11.93;;;;;;;15.08;100.00;101446.91;5036750;28;20033;-73
2023/07/20 05:08:08;;;;;;;14.75;13.00;;;;;;;15.13;100.00;101452.84;5038890;28;20075;-73
2023/07/20 05:10:33;;;;;;;17.98;13.55;;;;;;;15.10;100.00;101453.81;5036456;28;20034;-73
2023/07/20 05:12:59;;;;;;;16.90;13.98;;;;;;;15.15;100.00;101462.41;5045414;28;20466;-73
2023/07/20 05:15:24;;;;;;;17.27;14.75;;;;;;;15.13;100.00;101458.09;5045111;28;20037;-73
2023/07/20 05:17:50;;;;;;;17.63;14.13;;;;;;;15.23;100.00;101470.03;5045917;28;20029;-73
2023/07/20 05:20:15;;;;;;;16.60;14.55;;;;;;;15.26;100.00;101463.81;5043876;28;20036;-74
2023/07/20 05:22:40;;;;;;;16.98;14.80;;;;;;;15.28;100.00;101469.88;5037751;28;20068;-74
2023/07/20 05:25:10;;;;;;;16.60;14.27;;;;;;;15.41;100.00;101468.56;5039024;28;20087;-73
2023/07/20 05:27:39;;;;;;;18.05;14.82;;;;;;;15.42;100.00;101468.50;5044934;28;20036;-74
2023/07/20 05:30:07;;;;;;;16.55;14.55;;;;;;;15.50;100.00;101484.03;5043995;28;20373;-73
2023/07/20 05:32:32;;;;;;;18.38;14.77;;;;;;;15.61;100.00;101474.00;5041769;28;20041;-74
2023/07/20 05:34:57;;;;;;;19.00;14.05;;;;;;;15.61;100.00;101467.88;5044127;28;20028;-74
2023/07/20 05:37:23;;;;;;;17.00;14.55;;;;;;;15.64;100.00;101475.66;5042733;28;20108;-73
2023/07/20 05:39:48;;;;;;;13.63;12.07;;;;;;;15.68;100.00;101485.19;5045823;28;20025;-73
2023/07/20 05:42:13;;;;;;;11.23;9.65;;;;;;;15.66;100.00;101481.72;5039973;28;20112;-74
2023/07/20 05:44:40;;;;;;;14.23;10.68;;;;;;;15.66;100.00;101479.09;5045275;28;20100;-73
2023/07/20 05:47:06;;;;;;;12.38;10.48;;;;;;;15.75;100.00;101485.84;5048960;28;20423;-74
2023/07/20 05:49:31;;;;;;;12.43;10.18;;;;;;;15.85;100.00;101492.50;5041768;28;20479;-74
2023/07/20 05:51:57;;;;;;;15.00;10.88;;;;;;;15.84;100.00;101491.63;5039390;28;20146;-73
2023/07/20 05:54:24;;;;;;;15.18;10.73;;;;;;;15.85;100.00;101493.34;5040667;28;20033;-74
2023/07/20 05:56:49;;;;;;;11.65;9.43;;;;;;;15.80;100.00;101482.16;5037705;28;20037;-74
2023/07/20 05:59:15;;;;;;;12.43;10.45;;;;;;;15.82;100.00;101498.69;5041630;28;20032;-73
2023/07/20 06:01:40;;;;;;;13.35;10.05;;;;;;;15.84;100.00;101501.28;5043317;28;20463;-73
2023/07/20 06:04:05;;;;;;;14.52;9.98;;;;;;;15.93;100.00;101500.13;5044882;28;20520;-73
2023/07/20 06:06:31;;;;;;;11.85;9.60;;;;;;;16.04;100.00;101503.22;5033958;28;20432;-73
2023/07/20 06:08:56;;;;;;;8.27;7.07;;;;;;;16.09;100.00;101494.25;5034199;28;20053;-73
2023/07/20 06:11:21;;;;;;;10.13;6.90;;;;;;;16.13;100.00;101493.22;5041180;28;20029;-73
2023/07/20 06:13:47;;;;;;;7.20;5.93;;;;;;;16.17;100.00;101499.22;5042240;28;20033;-73
2023/07/20 06:16:12;;;;;;;6.25;5.10;;;;;;;16.19;100.00;101497.41;5044157;28;20025;-73
2023/07/20 06:18:37;;;;;;;5.93;5.00;;;;;;;16.12;100.00;101501.16;5037032;28;20022;-73
2023/07/20 06:21:03;;;;;;;5.75;5.15;;;;;;;16.04;100.00;101509.34;5037301;28;20374;-73
2023/07/20 06:23:28;;;;;;;7.03;5.82;;;;;;;16.00;100.00;101499.00;5039775;28;20017;-74
2023/07/20 06:25:53;;;;;;;6.68;5.65;;;;;;;16.04;100.00;101517.22;5040996;28;20044;-74
2023/07/20 06:28:19;;;;;;;6.13;4.82;;;;;;;16.16;100.00;101513.31;5039753;28;20106;-73
2023/07/20 06:30:44;;;;;;;7.22;6.53;;;;;;;16.18;100.00;101521.13;5043655;28;20029;-73
2023/07/20 06:33:10;;;;;;;6.70;5.85;;;;;;;16.27;100.00;101516.41;5046333;28;20447;-73
2023/07/20 06:35:35;;;;;;;8.95;6.35;;;;;;;16.29;100.00;101501.44;5045550;28;20108;-73
2023/07/20 06:38:03;;;;;;;8.10;5.85;;;;;;;16.29;100.00;101513.72;5037324;28;20485;-73
2023/07/20 06:40:32;;;;;;;7.97;6.18;;;;;;;16.30;100.00;101508.38;5032266;28;20104;-73
2023/07/20 06:42:57;;;;;;;8.60;6.50;;;;;;;16.32;100.00;101495.19;5036388;28;20446;-73
2023/07/20 06:45:22;;;;;;;8.25;6.32;;;;;;;16.37;100.00;101496.72;5032566;28;20072;-73
2023/07/20 06:47:48;;;;;;;9.57;7.47;;;;;;;16.44;100.00;101507.03;5037693;28;20025;-73
2023/07/20 06:50:13;;;;;;;9.50;7.90;;;;;;;16.50;100.00;101502.38;5032907;28;20029;-73
2023/07/20 06:52:39;;;;;;;7.95;7.22;;;;;;;16.35;100.00;101488.03;5037351;28;20108;-73
2023/07/20 06:55:06;;;;;;;9.90;8.90;;;;;;;16.36;100.00;101502.06;5035023;28;20381;-73
2023/07/20 06:57:31;;;;;;;9.95;7.97;;;;;;;16.31;100.00;101504.84;5038653;28;20033;-73
2023/07/20 06:59:56;;;;;;;14.57;9.60;;;;;;;16.26;100.00;101506.78;5042286;28;20048;-73
2023/07/20 07:02:22;;;;;;;12.65;9.48;;;;;;;16.32;100.00;101522.38;5041135;28;20040;-73
2023/07/20 07:04:47;;;;;;;10.32;8.35;;;;;;;16.23;100.00;101517.44;5041547;28;20025;-73
2023/07/20 07:07:14;;;;;;;9.70;8.70;;;;;;;16.31;100.00;101522.41;5036240;28;20061;-73
2023/07/20 07:09:40;;;;;;;9.50;8.50;;;;;;;16.43;100.00;101516.69;5032979;28;20384;-73
2023/07/20 07:12:05;;;;;;;10.65;8.27;;;;;;;16.65;100.00;101526.44;5040935;28;20029;-74
2023/07/20 07:14:31;;;;;;;8.40;7.57;;;;;;;16.72;100.00;101522.66;5042245;28;20044;-73
2023/07/20 07:16:56;;;;;;;9.75;7.32;;;;;;;16.70;100.00;101532.38;5046476;28;20040;-73
2023/07/20 07:19:21;;;;;;;7.85;6.55;;;;;;;16.55;100.00;101512.75;5043843;28;20159;-73
2023/07/20 07:21:47;;;;;;;4.40;4.00;;;;;;;16.53;100.00;101518.06;5042044;28;20071;-72
2023/07/20 07:24:12;;;;;;;6.18;4.38;;;;;;;16.49;100.00;101519.09;5032438;28;20083;-73
2023/07/20 07:26:38;;;;;;;5.45;4.30;;;;;;;16.56;100.00;101522.38;5043636;28;20484;-73
2023/07/20 07:29:03;;;;;;;4.72;4.00;;;;;;;16.58;100.00;101526.66;5041563;28;20041;-73
2023/07/20 07:31:30;;;;;;;7.45;3.88;;;;;;;16.63;100.00;101529.09;5041183;28;20033;-73
2023/07/20 07:33:56;;;;;;;5.75;3.90;;;;;;;16.68;100.00;101534.22;5041606;28;20041;-73
2023/07/20 07:36:21;;;;;;;3.80;2.70;;;;;;;16.78;100.00;101525.94;5036044;28;20040;-73
2023/07/20 07:38:46;;;;;;;5.63;2.40;;;;;;;16.92;100.00;101524.53;5043303;28;20025;-73
2023/07/20 07:41:11;;;;;;;2.90;2.00;;;;;;;16.95;100.00;101525.28;5039189;28;20022;-73
2023/07/20 07:43:38;;;;;;;6.05;2.33;;;;;;;16.95;100.00;101520.00;5042038;28;20029;-74
2023/07/20 07:46:03;;;;;;;2.05;1.85;;;;;;;17.01;100.00;101529.44;5035249;28;20067;-73
2023/07/20 07:48:29;;;;;;;3.55;2.45;;;;;;;17.01;100.00;101522.41;5042046;28;20055;-73
2023/07/20 07:50:54;;;;;;;3.35;2.30;;;;;;;17.15;100.00;101544.72;5038278;28;20148;-74
2023/07/20 07:53:20;;;;;;;2.65;2.30;;;;;;;17.12;100.00;101543.03;5037395;28;20079;-74
2023/07/20 07:55:47;;;;;;;2.40;2.20;;;;;;;17.25;100.00;101539.00;5044788;28;20461;-74
2023/07/20 07:58:13;;;;;;;4.70;2.30;;;;;;;17.24;100.00;101526.75;5035797;28;20029;-77
2023/07/20 08:00:39;;;;;;;2.80;2.50;;;;;;;17.28;100.00;101545.94;5046375;28;20373;-74
2023/07/20 08:03:06;;;;;;;4.55;2.33;;;;;;;17.26;100.00;101550.38;5042751;28;20066;-74
2023/07/20 08:05:33;;;;;;;3.30;2.22;;;;;;;17.18;100.00;101552.50;5045346;28;20553;-75
2023/07/20 08:07:58;;;;;;;2.10;1.90;;;;;;;17.07;100.00;101551.13;5042725;28;20357;-73
2023/07/20 08:10:23;;;;;;;3.30;1.80;;;;;;;17.05;100.00;101550.34;5050504;28;20040;-75
2023/07/20 08:12:49;;;;;;;3.47;1.95;;;;;;;17.10;100.00;101560.69;5043593;28;20037;-73
2023/07/20 08:15:14;;;;;;;3.13;2.30;;;;;;;17.30;100.00;101538.84;5047176;28;20036;-77
2023/07/20 08:17:41;;;;;;;2.50;2.30;;;;;;;17.80;100.00;101545.59;5046324;28;20033;-76
2023/07/20 08:20:07;;;;;;;5.18;2.53;;;;;;;18.17;94.22;101550.13;5046092;28;20040;-75
2023/07/20 08:22:33;;;;;;;2.17;1.98;;;;;;;18.32;88.71;101548.59;5046431;28;20473;-75
2023/07/20 08:24:58;;;;;;;2.63;1.60;;;;;;;18.32;86.82;101552.09;5045999;28;20021;-74
2023/07/20 08:27:25;;;;;;;3.92;1.85;;;;;;;18.36;87.23;101555.44;5045450;28;20029;-73
2023/07/20 08:29:50;;;;;;;2.00;1.35;;;;;;;18.77;89.39;101544.81;5040731;28;20473;-74
2023/07/20 08:32:15;;;;;;;1.98;1.27;;;;;;;19.25;82.94;101540.75;5042074;28;20116;-74
2023/07/20 08:34:41;;;;;;;1.52;1.20;;;;;;;19.68;81.93;101542.16;5031842;28;20520;-73
2023/07/20 08:37:10;;;;;;;2.65;1.80;;;;;;;20.05;80.29;101540.31;5032718;28;20033;-73
2023/07/20 08:39:35;;;;;;;1.58;1.35;;;;;;;20.32;78.36;101538.84;5038399;28;20108;-73
2023/07/20 08:42:06;;;;;;;2.25;1.67;;;;;;;20.26;75.03;101541.81;5044014;28;20120;-74
2023/07/20 08:44:33;;;;;;;2.72;1.75;;;;;;;20.05;75.72;101533.22;5037791;28;20108;-74
2023/07/20 08:47:02;;;;;;;2.65;1.65;;;;;;;19.72;76.16;101535.81;5038550;28;20033;-74
2023/07/20 08:49:27;;;;;;;3.65;1.80;;;;;;;19.54;78.13;101537.53;5044810;28;20029;-74
2023/07/20 08:51:53;;;;;;;1.83;1.73;;;;;;;19.42;75.93;101535.50;5046145;28;20033;-74
2023/07/20 08:54:18;;;;;;;2.42;1.42;;;;;;;19.24;81.30;101534.63;5041319;28;20037;-74
2023/07/20 08:56:46;;;;;;;2.03;1.40;;;;;;;19.19;78.81;101541.91;5044929;28;20346;-73
2023/07/20 08:59:16;;;;;;;2.13;1.20;;;;;;;19.36;79.71;101536.69;5042968;28;20430;-74
2023/07/20 09:01:42;;;;;;;3.53;1.20;;;;;;;19.80;78.76;101527.47;5038481;28;20029;-74
2023/07/20 09:04:07;;;;;;;1.92;1.10;;;;;;;19.92;78.15;101533.94;5030467;28;20044;-74
2023/07/20 09:06:34;;;;;;;2.78;1.10;;;;;;;20.08;78.51;101532.19;5033217;28;20030;-74
2023/07/20 09:09:00;;;;;;;2.33;1.10;;;;;;;20.43;78.50;101527.66;5044081;28;20116;-74
2023/07/20 09:11:25;;;;;;;1.55;1.13;;;;;;;20.38;72.97;101532.38;5041699;28;20112;-75
2023/07/20 09:14:07;;;;;;;2.65;1.10;;;;;;;20.07;74.72;101536.63;5040586;28;20441;-74
2023/07/20 09:16:46;;;;;;;1.80;1.20;;;;;;;19.87;75.50;101524.41;5040028;28;20021;-74
2023/07/20 09:19:12;;;;;;;2.60;1.45;;;;;;;19.60;72.69;101536.38;5044164;28;20078;-74
2023/07/20 09:21:37;;;;;;;2.08;1.30;;;;;;;19.54;74.14;101532.25;5047378;28;20464;-74
2023/07/20 09:24:03;;;;;;;1.58;1.05;;;;;;;19.66;80.59;101528.19;5044321;28;20484;-74
2023/07/20 09:26:28;;;;;;;2.08;1.42;;;;;;;20.01;75.68;101518.44;5046821;28;20148;-77
2023/07/20 09:28:56;;;;;;;2.63;1.40;;;;;;;20.49;71.46;101527.31;5043379;28;20432;-75
2023/07/20 09:31:22;;;;;;;2.08;1.20;;;;;;;20.92;67.17;101529.44;5048787;28;20104;-76
2023/07/20 09:33:49;;;;;;;1.30;1.20;;;;;;;21.33;69.43;101518.28;5044526;28;20048;-76
2023/07/20 09:36:15;;;;;;;1.23;1.13;;;;;;;21.68;62.24;101514.47;5042428;28;20043;-77
2023/07/20 09:38:43;;;;;;;2.10;1.15;;;;;;;22.42;69.35;101515.28;5042828;28;20376;-75
2023/07/20 09:41:18;;;;;;;3.85;1.30;;;;;;;22.62;57.62;101506.91;5044914;28;20029;-77
2023/07/20 09:43:44;;;;;;;1.98;1.13;;;;;;;22.35;60.98;101519.28;5044707;28;20025;-77
2023/07/20 09:46:10;;;;;;;0.90;0.85;;;;;;;22.22;56.36;101510.38;5039376;28;20033;-74
2023/07/20 09:48:35;;;;;;;1.77;1.02;;;;;;;22.14;55.91;101506.38;5049265;28;20035;-76
2023/07/20 09:51:01;;;;;;;1.92;0.93;;;;;;;21.81;55.33;101511.06;5041951;28;20465;-76
2023/07/20 09:53:28;;;;;;;1.50;0.80;;;;;;;21.45;57.03;101520.25;5043337;28;20025;-77
2023/07/20 09:55:54;;;;;;;2.40;1.00;;;;;;;21.07;60.25;101522.44;5038077;28;20061;-74
2023/07/20 09:58:20;;;;;;;2.25;1.30;;;;;;;20.69;62.27;101512.16;5047911;28;20029;-76
2023/07/20 10:00:49;;;;;;;1.92;1.42;;;;;;;20.45;65.82;101514.34;5041002;28;20507;-77
2023/07/20 10:03:19;;;;;;;1.45;1.35;;;;;;;20.31;63.74;101521.25;5047408;28;20101;-77
2023/07/20 10:05:51;;;;;;;1.33;1.20;;;;;;;20.25;66.84;101520.72;5040856;28;20025;-77
2023/07/20 10:08:18;;;;;;;1.10;0.97;;;;;;;20.25;68.21;101515.41;5041947;28;20109;-77
2023/07/20 10:10:45;;;;;;;1.35;1.20;;;;;;;20.45;65.46;101517.00;5026384;28;20037;-73
2023/07/20 10:13:17;;;;;;;2.53;1.33;;;;;;;20.79;64.44;101516.03;5037896;28;20029;-74
2023/07/20 10:16:14;;;;;;;4.07;1.23;;;;;;;21.23;66.21;101512.66;5041877;28;20025;-74
2023/07/20 10:19:04;;;;;;;2.03;1.20;;;;;;;21.73;67.13;101506.22;5033625;28;20029;-75
2023/07/20 10:21:30;;;;;;;1.50;1.20;;;;;;;22.05;60.17;101504.28;5034651;28;20140;-74
2023/07/20 10:23:57;;;;;;;1.45;1.17;;;;;;;22.33;62.89;101505.25;5032921;28;20532;-74
2023/07/20 10:26:22;;;;;;;3.83;1.58;;;;;;;22.42;57.06;101505.53;5035654;28;20059;-74
2023/07/20 10:28:49;;;;;;;2.17;1.42;;;;;;;22.64;55.12;101502.38;5042534;28;20030;-74
2023/07/20 10:31:15;;;;;;;3.35;1.10;;;;;;;22.92;52.78;101503.22;5043202;28;20045;-74
2023/07/20 10:33:41;;;;;;;3.80;0.90;;;;;;;23.30;51.15;101503.41;5041902;28;20041;-74
2023/07/20 10:36:06;;;;;;;3.97;1.20;;;;;;;23.24;53.03;101493.19;5041669;28;20033;-74
2023/07/20 10:38:41;;;;;;;2.25;1.00;;;;;;;23.42;55.86;101495.59;5038516;28;20025;-74
2023/07/20 10:41:27;;;;;;;2.38;1.00;;;;;;;23.20;52.78;101494.34;5041185;28;20025;-74
2023/07/20 10:43:59;;;;;;;1.90;1.05;;;;;;;22.77;55.40;101485.63;5034922;28;20546;-74
2023/07/20 10:46:39;;;;;;;1.27;1.10;;;;;;;23.21;54.47;101484.56;5038788;28;20032;-74
2023/07/20 10:49:07;;;;;;;1.33;1.10;;;;;;;23.81;54.56;101478.75;5031792;28;20021;-75
2023/07/20 10:51:39;;;;;;;1.05;0.90;;;;;;;24.37;54.64;101476.56;5028151;28;20068;-74
2023/07/20 10:54:08;;;;;;;1.17;1.00;;;;;;;24.43;48.52;101484.16;5042861;28;20045;-74
2023/07/20 10:56:33;;;;;;;2.78;1.20;;;;;;;23.92;48.87;101480.66;5042222;28;20029;-74
2023/07/20 10:59:00;;;;;;;4.53;1.23;;;;;;;23.43;49.32;101482.16;5044276;28;20029;-74
2023/07/20 11:01:37;;;;;;;0.88;0.88;;;;;;;23.16;51.03;101479.56;5035897;28;20088;-75
2023/07/20 11:04:08;;;;;;;8.30;2.55;;;;;;;22.93;52.59;101475.75;5041355;28;20036;-74
2023/07/20 11:06:33;;;;;;;4.65;1.90;;;;;;;22.74;53.67;101477.88;5036720;28;20048;-74
2023/07/20 11:09:16;;;;;;;17.27;6.22;;;;;;;22.60;56.56;101474.28;5037697;28;20099;-74
2023/07/20 11:11:43;;;;;;;4.95;1.50;;;;;;;22.42;54.53;101478.97;5042853;28;20064;-74
2023/07/20 11:14:10;;;;;;;1.55;1.00;;;;;;;22.18;55.61;101470.72;5044026;28;20053;-74